CYRL

Red Lake Airport

Red Lake, Ontario, Canada
METAR CYRL 212200Z 27013KT 15SM FEW220 17/M05 A3023 RMK CI1 WND ESTD SLP249 DENSITY ALT 1500FT
Observed Flight Rules
Apr-21 @ 22:00 UTC (an hour ago) Visual Flight Rules
Wind Visibility Clouds
270° at 13 knots 15 miles
  • Few at 22,000' AGL
Temperatures Readings
Current 17°C / 63°F
Dewpoint -5°C / 23°F
Humidity 22%
Altimeter 30.23" Hg
Pressure 1024.9 hPa
Elevation 383
METAR CYRL 212200Z 27013KT 15SM FEW220 17/M05 A3023 RMK CI1 WND ESTD SLP249 DENSITY ALT 1500FT
Observed Flight Rules
Apr-21 @ 22:00 UTC
(an hour ago)
VFR
Wind Visibility
270° at 13 knots 15 miles
Clouds
  • Few at 22,000' AGL
Temperature Dewpoint
17°C / 63°F -5°C / 23°F
Humidity Altimeter Pressure
22% 30.23" Hg 1024.9 hPa